Volendam, Netherlands
Current Conditions -  °F | °C
As of 4:55 AM on Thursday 18 Dec 2014 (Local Time) from EHAM Reporting Station
Drizzle Drizzle  
Wind Chill: 50°   Ceiling: 400
Heat Index: 50°   Visibility: 1.3mi
Dew Point: 50°   Wind: 9mph
Humidity: 100%   Direction: 210°SSW
Pressure: 29.74"   Gusts: NA
Location:  52.5°N, 5.07°E
Report Text: EHAM 180355Z 21008KT 2100 -DZ SCT003 OVC004 10/10 Q1007 BECMG3500
Loading
Personal Weather Stations






























Interactive Weather Map New forecast layout! Learn more

10-Day Weather Forecast

Advertisements
Track Severe Weather on mobile